Time;durP1;ratioP1;P1;durP2;ratioP2;P2;SDS_P1;SDS_P2;PMS_P1;PMS_P2;Temp;Humidity;BMP_temperature;BMP_pressure;BME280_temperature;BME280_humidity;BME280_pressure;Samples;Min_cycle;Max_cycle;Signal;HPM_P1;HPM_P2
2024/03/26 15:51:10;;;;;;;;;;;;;;;;;;20978129;27;19925;-59
2024/03/26 16:01:11;;;;;;;;;;;;;;;;;;20690512;28;790410;-60
2024/03/26 16:11:12;;;;;;;;;;;;;;;;;;20882126;28;19913;-59
2024/03/26 16:21:14;;;;;;;;;;;;;;;;;;20869584;28;19920;-58
2024/03/26 16:31:18;;;;;;;;;;;;;;;;;;20823695;28;19913;-59
2024/03/26 16:41:19;;;;;;;;;;;;;;;;;;20858849;28;20318;-58
2024/03/26 16:51:20;;;;;;;;;;;;;;;;;;20839824;28;20040;-57
2024/03/26 17:01:22;;;;;;;;;;;;;;;;;;20820234;28;20358;-58
2024/03/26 17:11:23;;;;;;;;;;;;;;;;;;20821141;28;19925;-59
2024/03/26 17:21:24;;;;;;;;;;;;;;;;;;20830171;28;19913;-60
2024/03/26 17:31:25;;;;;;;;;;;;;;;;;;20831242;28;19924;-59
2024/03/26 17:41:26;;;;;;;;;;;;;;;;;;20824695;28;19929;-58
2024/03/26 17:51:27;;;;;;;;;;;;;;;;;;20820630;28;19914;-59
2024/03/26 18:01:29;;;;;;;;;;;;;;;;;;20823152;28;19960;-61
2024/03/26 18:11:31;;;;;;;;;;;;;;;;;;20834127;28;19909;-62
2024/03/26 18:21:33;;;;;;;;;;;;;;;;;;20834364;28;20002;-61
2024/03/26 18:31:35;;;;;;;;;;;;;;;;;;20832473;28;19913;-62
2024/03/26 18:41:36;;;;;;;;;;;;;;;;;;20831880;28;19924;-62
2024/03/26 18:51:38;;;;;;;;;;;;;;;;;;20833564;28;20358;-61
2024/03/26 19:01:40;;;;;;;;;;;;;;;;;;20831194;28;19960;-62
2024/03/26 19:11:41;;;;;;;;;;;;;;;;;;20831620;28;20370;-63
2024/03/26 19:21:43;;;;;;;;;;;;;;;;;;20830764;28;19917;-62
2024/03/26 19:31:46;;;;;;;;;;;;;;;;;;20829430;28;19967;-64
2024/03/26 19:41:48;;;;;;;;;;;;;;;;;;20829208;28;19939;-62
2024/03/26 19:51:49;;;;;;;;;;;;;;;;;;20829972;28;20362;-63
2024/03/26 20:01:52;;;;;;;;;;;;;;;;;;20827689;28;19967;-62
2024/03/26 20:11:53;;;;;;;;;;;;;;;;;;20829723;28;19916;-62
2024/03/26 20:21:57;;;;;;;;;;;;;;;;;;20827942;28;20007;-61
2024/03/26 20:31:58;;;;;;;;;;;;;;;;;;20834708;28;19920;-62
2024/03/26 20:41:59;;;;;;;;;;;;;;;;;;20843526;28;19922;-62
2024/03/26 20:52:01;;;;;;;;;;;;;;;;;;20843001;28;19909;-61
2024/03/26 21:02:03;;;;;;;;;;;;;;;;;;20840950;28;19924;-62
2024/03/26 21:12:05;;;;;;;;;;;;;;;;;;20839836;28;19959;-61
2024/03/26 21:22:07;;;;;;;2.38;1.00;;;;;;;;;;20838351;28;19964;-61
2024/03/26 21:32:08;;;;;;;;;;;;;;;;;;20838381;28;20037;-62
2024/03/26 21:42:09;;;;;;;;;;;;;;;;;;20838600;28;20331;-63
2024/03/26 21:52:11;;;;;;;;;;;;;;;;;;20836974;28;19909;-61
2024/03/26 22:02:12;;;;;;;;;;;;;;;;;;20836005;28;19967;-63
2024/03/26 22:12:14;;;;;;;;;;;;;;;;;;20835713;28;19905;-63
2024/03/26 22:22:15;;;;;;;;;;;;;;;;;;20834779;28;20278;-60
2024/03/26 22:32:17;;;;;;;;;;;;;;;;;;20833887;28;19919;-61
2024/03/26 22:42:19;;;;;;;;;;;;;;;;;;20834168;28;19917;-60
2024/03/26 22:52:22;;;;;;;;;;;;;;;;;;20832138;28;19908;-62
2024/03/26 23:02:23;;;;;;;;;;;;;;;;;;20831599;28;19913;-61
2024/03/26 23:12:24;;;;;;;;;;;;;;;;;;20832136;28;19909;-61
2024/03/26 23:22:27;;;;;;;;;;;;;;;;;;20831510;28;19986;-61
2024/03/26 23:32:28;;;;;;;;;;;;;;;;;;20830987;28;19959;-60
2024/03/26 23:42:30;;;;;;;;;;;;;;;;;;20829264;28;20370;-60
2024/03/26 23:52:31;;;;;;;;;;;;;;;;;;20829046;28;19912;-60
